Terminal Aerodrome Forecast
Issued by NWS

Home | Current Version | Previous Version | Text Only | Print | Product List | Glossary On
Versions: 1 2 3 4 5 6 7 8 9 10 11 12 13 14 15 16 17 18
000
FTUS46 KLOX 220500 RRA
TAFOXR
TAF
KOXR 220552Z 2206/2306 05007KT P6SM BKN200
     FM221500 04015KT P6SM BKN200
     FM221900 06006KT P6SM SCT200
     FM222100 28010KT P6SM SCT200
     FM230300 04006KT P6SM SKC=

USA.gov is the U.S. government's official web portal to all federal, state and local government web resources and services.